Latest  Newer  Older  Last 2 hours slideshow  Last 24 hours slideshow  Refresh every 5 minutes 
Current image  Latest image  Rain/snow radar  Cloud coverage sat images 

All time is UTC (add 2 hours to UTC in wintertime, 3 hours to UTC in DST for Latvia local time)

2019/11/13 11:50 EVRA 131150Z 15007KT 9999 -RA FEW010 BKN012 OVC015 11/09 Q1006 R18/290195 NOSIG
2019/11/13 11:50 EVLA 131150Z AUTO 15004KT 6000 -RA BKN006/// BKN014/// OVC019/// 10/10 Q1003
2019/11/13 11:50 EVVA 131150Z AUTO 14005KT 4200 -DZ BKN012 OVC020 10/09 Q1004
2019/11/13 11:50 EYKA 131150Z 15008KT 110V190 CAVOK 13/08 Q1007 R08/290095
2019/11/13 11:50 EYPA 131150Z 15006KT 5000 -RA BR OVC003 10/10 Q1004 R19/2///95
2019/11/13 11:50 EYSA 131150Z 14011KT 9000 -RA SCT011 OVC076 10/09 Q1006 R14L/29//95 R14R/29//95 GRN TEMPO FEW009 OVC065 BLU
2019/11/13 11:50 EYVI 131150Z 15017KT 130V190 CAVOK 12/07 Q1008 R19/1///95 NOSIG
2019/11/13 11:50 EEKA 131150Z 16008KT 4000 -RA BR OVC003 08/08 Q1005
2019/11/13 11:50 EEKE 131150Z 16010KT 4500 -RA BR BKN007 OVC010 09/08 Q1005
2019/11/13 11:50 EEPU 131150Z 15006KT 090V200 8000 RA OVC008 09/09 Q1006
2019/11/13 11:50 EETN 131150Z 15010KT 120V190 9999 -RA OVC007 07/06 Q1007 R08/290195 NOSIG
2019/11/13 11:50 EETU 131150Z AUTO 17008KT 130V210 8000 OVC006/// 08/07 Q1009
   RIGA AIRPORT     EVRA               56 55N  023 58E   10   X     T          6 LV
   LIEPAJA INTL     EVLA        26406  56 31N  021 06E    4   X                8 LV
   VENTPILS         EVVA               57 21N  021 33E    6   X                8 LV
   KAUNAS           EYKA               54 54N  023 55E   77   X     T          6 LT
   PALANGA INTL     EYPA               55 55N  021 03E   10   X                6 LT
   SIAULIAI INTL    EYSA               55 54N  023 24E  135   X     T          6 LT
   VILNIUS INTL     EYVI        26730  54 38N  025 17E  197   X     T          6 LT
   KARDLA           EEKA        26116  58 59N  022 50E    4   X                8 EE
   KURESSAARE       EEKE               58 14N  022 31E    4   X                8 EE
   PARNU            EEPU               58 25N  024 28E   14   X                8 EE
   TALLINN          EETN        26038  59 24N  024 49E   40   X     T          8 EE
   TARTU            EETU               58 19N  026 41E   67   X                8 EE